createdAt,value
2018-12-04T00:01:00.090Z,74.20
2018-12-04T00:03:27.626Z,74.10
2018-12-04T00:05:55.079Z,74.30
2018-12-04T00:08:22.554Z,74.30
2018-12-04T00:10:50.026Z,74.40
2018-12-04T00:13:17.495Z,74.20
2018-12-04T00:15:44.958Z,74.80
2018-12-04T00:18:12.429Z,74.10
2018-12-04T00:20:39.889Z,74.30
2018-12-04T00:23:07.368Z,74.30
2018-12-04T00:25:34.825Z,74.30
2018-12-04T00:28:02.316Z,74.80
2018-12-04T00:30:29.772Z,74.30
2018-12-04T00:32:57.292Z,74.50
2018-12-04T00:35:24.749Z,74.50
2018-12-04T00:37:52.284Z,74.40
2018-12-04T00:40:20.770Z,74.20
2018-12-04T00:42:48.245Z,74.10
2018-12-04T00:45:15.705Z,74.20
2018-12-04T00:47:43.190Z,74.00
2018-12-04T00:50:10.733Z,74.10
2018-12-04T00:52:38.207Z,74.10
2018-12-04T00:55:06.029Z,74.20
2018-12-04T00:57:33.492Z,74.40
2018-12-04T01:00:00.948Z,74.30
2018-12-04T01:02:28.426Z,74.30
2018-12-04T01:04:55.885Z,74.30
2018-12-04T01:07:23.352Z,74.10
2018-12-04T01:09:50.838Z,73.90
2018-12-04T01:12:18.361Z,74.40
2018-12-04T01:14:45.860Z,73.70
2018-12-04T01:17:13.316Z,73.70
2018-12-04T01:19:40.898Z,73.70
2018-12-04T01:22:08.349Z,73.60
2018-12-04T01:24:35.834Z,73.50
2018-12-04T01:27:03.284Z,73.50
2018-12-04T01:29:30.753Z,73.30
2018-12-04T01:31:58.209Z,73.20
2018-12-04T01:34:25.714Z,73.10
2018-12-04T01:36:53.234Z,73.20
2018-12-04T01:39:20.696Z,73.20
2018-12-04T01:41:48.175Z,73.20
2018-12-04T01:44:15.669Z,73.80
2018-12-04T01:46:43.122Z,72.90
2018-12-04T01:49:10.617Z,72.70
2018-12-04T01:51:38.082Z,72.70
2018-12-04T01:54:05.553Z,72.70
2018-12-04T01:56:33.042Z,72.60
2018-12-04T01:59:00.526Z,72.60
2018-12-04T02:01:27.978Z,72.60
2018-12-04T02:03:55.450Z,72.60
2018-12-04T02:06:22.921Z,73.20
2018-12-04T02:08:50.373Z,72.20
2018-12-04T02:11:17.845Z,72.20
2018-12-04T02:13:45.304Z,72.10
2018-12-04T02:16:12.769Z,71.80
2018-12-04T02:18:40.553Z,72.00
2018-12-04T02:21:08.029Z,71.80
2018-12-04T02:23:35.481Z,71.90
2018-12-04T02:26:03.005Z,72.10
2018-12-04T02:28:45.306Z,72.20
2018-12-04T02:31:12.785Z,72.20
2018-12-04T02:33:40.249Z,72.20
2018-12-04T02:36:07.758Z,72.20
2018-12-04T02:38:35.205Z,72.30
2018-12-04T02:41:02.690Z,72.20
2018-12-04T02:43:30.165Z,72.20
2018-12-04T02:45:57.637Z,72.20
2018-12-04T02:48:25.082Z,72.40
2018-12-04T02:50:52.590Z,72.40
2018-12-04T02:53:20.082Z,72.80
2018-12-04T02:55:47.552Z,72.80
2018-12-04T02:58:15.097Z,72.80
2018-12-04T03:00:42.573Z,72.90
2018-12-04T03:03:10.039Z,72.90
2018-12-04T03:05:37.550Z,73.00
2018-12-04T03:08:05.015Z,73.20
2018-12-04T03:10:32.492Z,73.10
2018-12-04T03:12:59.959Z,73.10
2018-12-04T03:15:27.419Z,73.20
2018-12-04T03:17:54.910Z,73.20
2018-12-04T03:20:22.406Z,72.90
2018-12-04T03:22:49.878Z,73.20
2018-12-04T03:25:17.340Z,73.00
2018-12-04T03:27:44.819Z,72.80
2018-12-04T03:30:12.296Z,73.00
2018-12-04T03:32:39.893Z,73.20
2018-12-04T03:35:07.395Z,73.30
2018-12-04T03:37:34.994Z,73.20
2018-12-04T03:40:02.834Z,73.00
2018-12-04T03:42:30.338Z,72.80
2018-12-04T03:44:57.849Z,72.40
2018-12-04T03:47:25.372Z,72.40
2018-12-04T03:49:53.552Z,72.20
2018-12-04T03:52:21.053Z,71.90
2018-12-04T03:54:48.509Z,71.90
2018-12-04T03:57:15.977Z,71.80
2018-12-04T03:59:43.451Z,71.80
2018-12-04T04:02:10.939Z,71.40
2018-12-04T04:04:38.421Z,71.40
2018-12-04T04:07:05.893Z,71.20
2018-12-04T04:09:33.346Z,71.20
2018-12-04T04:12:00.828Z,71.30
2018-12-04T04:14:28.307Z,70.90
2018-12-04T04:16:55.782Z,70.80
2018-12-04T04:19:23.243Z,71.20
2018-12-04T04:21:50.755Z,70.30
2018-12-04T04:24:18.218Z,70.00
2018-12-04T04:26:45.706Z,69.80
2018-12-04T04:29:13.166Z,69.60
2018-12-04T04:31:40.641Z,69.40
2018-12-04T04:34:08.125Z,69.20
2018-12-04T04:36:35.596Z,68.90
2018-12-04T04:39:05.114Z,68.80
2018-12-04T04:41:32.574Z,68.70
2018-12-04T04:44:00.064Z,68.40
2018-12-04T04:46:27.638Z,68.30
2018-12-04T04:48:55.109Z,68.20
2018-12-04T04:51:22.567Z,68.00
2018-12-04T04:53:50.043Z,67.40
2018-12-04T04:56:17.551Z,67.00
2018-12-04T04:58:45.042Z,66.80
2018-12-04T05:01:12.505Z,66.60
2018-12-04T05:03:39.981Z,66.50
2018-12-04T05:06:07.495Z,66.20
2018-12-04T05:08:35.043Z,65.90
2018-12-04T05:11:02.502Z,65.90
2018-12-04T05:13:29.972Z,65.70
2018-12-04T05:15:57.417Z,65.50
2018-12-04T05:18:24.911Z,65.50
2018-12-04T05:20:52.372Z,65.70
2018-12-04T05:23:19.862Z,65.90
2018-12-04T05:25:47.317Z,65.80
2018-12-04T05:28:14.803Z,65.70
2018-12-04T05:30:42.319Z,65.60
2018-12-04T05:33:09.775Z,65.60
2018-12-04T05:35:37.273Z,65.60
2018-12-04T05:38:04.763Z,65.80
2018-12-04T05:40:32.247Z,65.90
2018-12-04T05:42:59.702Z,66.10
2018-12-04T05:45:27.181Z,66.20
2018-12-04T05:47:54.651Z,66.30
2018-12-04T05:50:22.118Z,67.50
2018-12-04T05:55:50.979Z,67.10
2018-12-04T05:58:18.440Z,67.40
2018-12-04T06:00:45.912Z,68.50
2018-12-04T06:03:13.367Z,68.10
2018-12-04T06:05:40.883Z,68.30
2018-12-04T06:08:08.384Z,68.20
2018-12-04T06:10:35.862Z,68.20
2018-12-04T06:13:03.350Z,68.20
2018-12-04T06:15:30.871Z,68.10
2018-12-04T06:17:58.380Z,68.20
2018-12-04T06:20:25.911Z,68.20
2018-12-04T06:22:53.362Z,68.30
2018-12-04T06:25:20.852Z,68.20
2018-12-04T06:27:48.347Z,68.30
2018-12-04T06:30:15.832Z,68.10
2018-12-04T06:32:43.284Z,68.70
2018-12-04T06:35:10.845Z,68.00
2018-12-04T06:37:38.298Z,68.30
2018-12-04T06:40:05.900Z,68.40
2018-12-04T06:42:33.366Z,68.50
2018-12-04T06:45:00.840Z,68.60
2018-12-04T06:47:28.293Z,68.50
2018-12-04T06:49:55.781Z,68.50
2018-12-04T06:52:23.825Z,68.30
2018-12-04T06:54:51.310Z,68.10
2018-12-04T06:57:18.908Z,68.10
2018-12-04T06:59:46.389Z,68.00
2018-12-04T07:02:13.856Z,67.80
2018-12-04T07:04:41.416Z,67.70
2018-12-04T07:07:08.933Z,67.60
2018-12-04T07:09:36.417Z,67.50
2018-12-04T07:12:03.938Z,67.40
2018-12-04T07:14:31.458Z,67.50
2018-12-04T07:16:59.027Z,67.40
2018-12-04T07:19:26.653Z,67.50
2018-12-04T07:21:54.187Z,68.00
2018-12-04T07:24:21.640Z,67.60
2018-12-04T07:26:49.130Z,67.90
2018-12-04T07:29:16.707Z,67.70
2018-12-04T07:31:44.229Z,68.10
2018-12-04T07:34:11.697Z,68.00
2018-12-04T07:36:39.172Z,68.20
2018-12-04T07:39:07.484Z,68.30
2018-12-04T07:41:34.968Z,68.40
2018-12-04T07:44:02.504Z,68.40
2018-12-04T07:46:30.014Z,68.40
2018-12-04T07:48:57.508Z,68.40
2018-12-04T07:51:24.999Z,68.60
2018-12-04T07:53:52.472Z,68.50
2018-12-04T07:56:19.947Z,68.50
2018-12-04T07:58:47.405Z,68.60
2018-12-04T08:01:14.933Z,68.70
2018-12-04T08:03:42.409Z,68.70
2018-12-04T08:06:10.151Z,68.80
2018-12-04T08:08:37.615Z,68.80
2018-12-04T08:11:05.095Z,68.70
2018-12-04T08:13:32.551Z,69.00
2018-12-04T08:16:00.039Z,69.00
2018-12-04T08:18:27.507Z,69.00
2018-12-04T08:20:55.001Z,69.10
2018-12-04T08:23:22.531Z,69.80
2018-12-04T08:25:50.083Z,68.90
2018-12-04T08:28:17.560Z,68.80
2018-12-04T08:30:45.038Z,68.80
2018-12-04T08:33:12.507Z,68.80
2018-12-04T08:35:40.003Z,68.60
2018-12-04T08:38:07.523Z,68.50
2018-12-04T08:40:35.571Z,68.40
2018-12-04T08:43:03.066Z,68.40
2018-12-04T08:45:30.551Z,68.50
2018-12-04T08:47:58.510Z,68.30
2018-12-04T08:50:26.100Z,68.40
2018-12-04T08:52:53.592Z,68.00
2018-12-04T08:55:21.154Z,68.10
2018-12-04T08:57:48.625Z,68.10
2018-12-04T09:00:16.102Z,67.80
2018-12-04T09:02:43.639Z,67.70
2018-12-04T09:05:11.119Z,67.50
2018-12-04T09:07:38.707Z,67.50
2018-12-04T09:10:06.719Z,67.60
2018-12-04T09:12:34.203Z,67.60
2018-12-04T09:15:01.733Z,67.60
2018-12-04T09:17:29.212Z,67.50
2018-12-04T09:19:56.682Z,67.60
2018-12-04T09:22:24.166Z,67.60
2018-12-04T09:24:51.708Z,67.20
2018-12-04T09:27:19.300Z,66.90
2018-12-04T09:29:46.936Z,66.80
2018-12-04T09:32:14.545Z,67.20
2018-12-04T09:34:42.075Z,66.40
2018-12-04T09:37:09.578Z,66.30
2018-12-04T09:39:37.114Z,66.00
2018-12-04T09:42:04.734Z,66.10
2018-12-04T09:44:32.178Z,65.70
2018-12-04T09:46:59.652Z,65.70
2018-12-04T09:49:27.160Z,65.20
2018-12-04T09:51:54.635Z,65.10
2018-12-04T09:54:22.085Z,64.90
2018-12-04T09:56:49.559Z,64.70
2018-12-04T09:59:18.892Z,64.50
2018-12-04T10:01:47.039Z,64.30
2018-12-04T10:04:14.509Z,64.20
2018-12-04T10:06:42.102Z,64.00
2018-12-04T10:09:09.833Z,63.90
2018-12-04T10:11:37.461Z,63.60
2018-12-04T10:14:04.996Z,63.60
2018-12-04T10:16:32.488Z,63.60
2018-12-04T10:18:59.951Z,63.80
2018-12-04T10:21:27.433Z,63.70
2018-12-04T10:23:54.895Z,63.40
2018-12-04T10:26:22.377Z,62.70
2018-12-04T10:28:49.836Z,62.10
2018-12-04T10:31:17.365Z,61.80
2018-12-04T10:33:44.851Z,61.80
2018-12-04T10:36:12.347Z,61.60
2018-12-04T10:38:39.814Z,61.80
2018-12-04T10:41:07.330Z,61.80
2018-12-04T10:43:34.863Z,61.80
2018-12-04T10:46:03.338Z,62.40
2018-12-04T10:48:30.923Z,61.00
2018-12-04T10:50:58.438Z,60.80
2018-12-04T10:53:26.116Z,61.00
2018-12-04T10:55:53.579Z,60.90
2018-12-04T10:58:21.152Z,60.50
2018-12-04T11:00:54.313Z,60.30
2018-12-04T11:03:23.735Z,60.30
2018-12-04T11:05:51.205Z,60.00
2018-12-04T11:08:18.689Z,60.20
2018-12-04T11:10:46.156Z,60.30
2018-12-04T11:13:13.815Z,60.10
2018-12-04T11:15:41.294Z,60.00
2018-12-04T11:18:08.769Z,60.00
2018-12-04T11:20:36.275Z,60.10
2018-12-04T11:23:03.870Z,60.40
2018-12-04T11:25:31.348Z,60.60
2018-12-04T11:27:58.822Z,60.20
2018-12-04T11:30:26.294Z,59.90
2018-12-04T11:32:53.862Z,59.30
2018-12-04T11:35:21.347Z,58.70
2018-12-04T11:37:48.869Z,58.80
2018-12-04T11:40:16.364Z,58.60
2018-12-04T11:42:43.859Z,57.90
2018-12-04T11:45:11.470Z,57.90
2018-12-04T11:47:39.022Z,58.00
2018-12-04T11:50:06.823Z,57.90
2018-12-04T11:52:34.492Z,57.60
2018-12-04T11:55:02.140Z,57.00
2018-12-04T11:57:29.833Z,57.00
2018-12-04T11:59:57.416Z,56.70
2018-12-04T12:02:24.931Z,56.80
2018-12-04T12:04:52.456Z,56.80
2018-12-04T12:07:20.659Z,56.90
2018-12-04T12:09:48.417Z,57.00
2018-12-04T12:12:16.207Z,56.90
2018-12-04T12:14:43.953Z,56.40
2018-12-04T12:17:11.765Z,56.30
2018-12-04T12:19:39.316Z,56.20
2018-12-04T12:22:08.207Z,56.00
2018-12-04T12:24:35.702Z,56.20
2018-12-04T12:27:03.248Z,56.10
2018-12-04T12:29:30.757Z,56.70
2018-12-04T12:31:58.218Z,55.60
2018-12-04T12:34:25.746Z,55.40
2018-12-04T12:36:53.242Z,55.30
2018-12-04T12:39:20.737Z,55.10
2018-12-04T12:41:48.197Z,55.00
2018-12-04T12:44:15.700Z,54.80
2018-12-04T12:46:43.234Z,53.50
2018-12-04T12:49:10.832Z,53.50
2018-12-04T12:51:38.392Z,54.00
2018-12-04T12:54:05.996Z,54.20
2018-12-04T12:56:33.484Z,54.20
2018-12-04T12:59:01.023Z,54.60
2018-12-04T13:01:28.482Z,55.00
2018-12-04T13:03:55.960Z,54.90
2018-12-04T13:06:23.482Z,55.10
2018-12-04T13:08:51.019Z,55.30
2018-12-04T13:11:18.511Z,55.40
2018-12-04T13:13:46.008Z,55.40
2018-12-04T13:16:13.551Z,55.30
2018-12-04T13:18:41.097Z,55.20
2018-12-04T13:21:08.611Z,55.20
2018-12-04T13:23:36.147Z,55.30
2018-12-04T13:26:03.668Z,55.10
2018-12-04T13:28:31.390Z,55.30
2018-12-04T13:30:59.010Z,55.30
2018-12-04T13:33:26.917Z,55.50
2018-12-04T13:35:54.427Z,55.50
2018-12-04T13:38:21.916Z,55.50
2018-12-04T13:40:49.410Z,55.20
2018-12-04T13:43:17.846Z,55.30
2018-12-04T13:45:45.314Z,55.20
2018-12-04T13:48:12.854Z,55.20
2018-12-04T13:50:40.476Z,55.20
2018-12-04T13:53:07.959Z,55.00
2018-12-04T13:55:35.521Z,55.10
2018-12-04T13:58:03.016Z,54.90
2018-12-04T14:00:30.535Z,55.10
2018-12-04T14:02:58.104Z,55.10
2018-12-04T14:05:25.668Z,55.10
2018-12-04T14:07:53.221Z,55.00
2018-12-04T14:10:20.821Z,54.90
2018-12-04T14:12:48.375Z,55.00
2018-12-04T14:15:15.914Z,55.00
2018-12-04T14:17:43.466Z,54.70
2018-12-04T14:20:11.053Z,54.60
2018-12-04T14:22:38.536Z,54.60
2018-12-04T14:25:06.372Z,54.70
2018-12-04T14:27:33.957Z,54.60
2018-12-04T14:30:01.428Z,54.80
2018-12-04T14:32:28.902Z,54.70
2018-12-04T14:34:56.397Z,55.60
2018-12-04T14:37:24.069Z,55.20
2018-12-04T14:39:51.633Z,55.40
2018-12-04T14:42:19.120Z,55.50
2018-12-04T14:44:46.726Z,55.60
2018-12-04T14:47:14.189Z,55.80
2018-12-04T14:49:41.776Z,56.00
2018-12-04T14:52:09.376Z,56.30
2018-12-04T14:54:36.930Z,56.40
2018-12-04T14:57:04.389Z,56.50
2018-12-04T14:59:31.866Z,56.50
2018-12-04T15:01:59.414Z,56.60
2018-12-04T15:04:26.967Z,56.60
2018-12-04T15:06:54.451Z,56.70
2018-12-04T15:09:22.160Z,56.50
2018-12-04T15:11:49.773Z,56.50
2018-12-04T15:14:17.242Z,57.10
2018-12-04T15:16:44.723Z,56.60
2018-12-04T15:19:12.233Z,56.80
2018-12-04T15:21:39.815Z,56.90
2018-12-04T15:24:08.008Z,56.80
2018-12-04T15:26:35.636Z,56.70
2018-12-04T15:29:03.265Z,56.60
2018-12-04T15:31:30.865Z,56.90
2018-12-04T15:33:58.470Z,57.00
2018-12-04T15:36:26.075Z,57.20
2018-12-04T15:38:53.700Z,57.40
2018-12-04T15:41:21.277Z,57.20
2018-12-04T15:43:48.727Z,57.20
2018-12-04T15:46:16.267Z,57.20
2018-12-04T15:48:43.912Z,57.20
2018-12-04T15:51:11.500Z,57.30
2018-12-04T15:53:39.072Z,57.40
2018-12-04T15:56:06.692Z,57.90
2018-12-04T15:58:34.159Z,58.10
2018-12-04T16:01:01.710Z,58.30
2018-12-04T16:03:29.173Z,58.50
2018-12-04T16:05:56.667Z,58.40
2018-12-04T16:08:24.130Z,58.20
2018-12-04T16:10:51.619Z,58.30
2018-12-04T16:13:19.074Z,58.40
2018-12-04T16:15:46.680Z,58.30
2018-12-04T16:18:14.387Z,58.40
2018-12-04T16:20:41.900Z,58.60
2018-12-04T16:23:09.381Z,58.20
2018-12-04T16:25:36.999Z,58.30
2018-12-04T16:28:04.535Z,58.40
2018-12-04T16:30:32.090Z,58.50
2018-12-04T16:32:59.543Z,58.90
2018-12-04T16:35:27.188Z,59.20
2018-12-04T16:37:54.638Z,59.50
2018-12-04T16:40:22.149Z,59.40
2018-12-04T16:42:49.618Z,59.30
2018-12-04T16:45:17.110Z,59.50
2018-12-04T16:47:44.574Z,59.20
2018-12-04T16:50:12.211Z,59.10
2018-12-04T16:52:39.856Z,59.10
2018-12-04T16:55:07.440Z,59.30
2018-12-04T16:57:34.907Z,60.20
2018-12-04T17:00:02.432Z,60.30
2018-12-04T17:02:29.898Z,60.50
2018-12-04T17:04:57.353Z,60.60
2018-12-04T17:07:24.817Z,60.90
2018-12-04T17:09:52.262Z,60.80
2018-12-04T17:12:19.854Z,60.80
2018-12-04T17:14:47.384Z,60.90
2018-12-04T17:17:14.923Z,61.00
2018-12-04T17:19:42.399Z,61.00
2018-12-04T17:22:09.891Z,61.10
2018-12-04T17:24:37.348Z,61.20
2018-12-04T17:27:04.881Z,61.40
2018-12-04T17:29:32.331Z,61.60
2018-12-04T17:31:59.857Z,61.40
2018-12-04T17:34:27.899Z,61.50
2018-12-04T17:36:55.376Z,61.30
2018-12-04T17:39:22.835Z,61.30
2018-12-04T17:41:50.352Z,61.50
2018-12-04T17:44:17.886Z,61.50
2018-12-04T17:46:45.351Z,61.60
2018-12-04T17:49:12.828Z,61.50
2018-12-04T17:51:40.295Z,61.60
2018-12-04T17:54:07.862Z,61.60
2018-12-04T17:56:35.367Z,61.70
2018-12-04T17:59:02.822Z,61.80
2018-12-04T18:01:30.311Z,62.20
2018-12-04T18:03:57.772Z,62.10
2018-12-04T18:06:25.312Z,61.90
2018-12-04T18:08:52.758Z,62.10
2018-12-04T18:11:21.782Z,62.10
2018-12-04T18:13:49.230Z,62.00
2018-12-04T18:16:16.701Z,62.30
2018-12-04T18:18:44.159Z,62.30
2018-12-04T18:21:11.687Z,62.40
2018-12-04T18:23:39.142Z,62.20
2018-12-04T18:26:06.611Z,62.20
2018-12-04T18:28:34.082Z,62.40
2018-12-04T18:31:01.546Z,62.20
2018-12-04T18:33:29.009Z,62.60
2018-12-04T18:35:56.475Z,62.40
2018-12-04T18:38:23.946Z,62.40
2018-12-04T18:40:51.396Z,62.40
2018-12-04T18:43:18.870Z,62.50
2018-12-04T18:45:46.344Z,62.60
2018-12-04T18:48:13.840Z,62.60
2018-12-04T18:50:41.322Z,62.90
2018-12-04T18:53:08.818Z,63.00
2018-12-04T18:55:36.279Z,62.90
2018-12-04T18:58:03.815Z,63.10
2018-12-04T19:00:31.313Z,63.60
2018-12-04T19:02:58.905Z,62.90
2018-12-04T19:05:26.407Z,63.00
2018-12-04T19:07:53.936Z,63.00
2018-12-04T19:10:21.402Z,63.10
2018-12-04T19:12:49.338Z,63.20
2018-12-04T19:15:16.831Z,63.30
2018-12-04T19:17:44.362Z,63.10
2018-12-04T19:20:11.935Z,63.40
2018-12-04T19:22:39.482Z,63.80
2018-12-04T19:25:06.955Z,63.00
2018-12-04T19:27:34.553Z,63.10
2018-12-04T19:30:03.079Z,63.00
2018-12-04T19:32:30.598Z,63.20
2018-12-04T19:34:58.059Z,63.10
2018-12-04T19:37:25.533Z,63.30
2018-12-04T19:39:52.987Z,63.20
2018-12-04T19:42:20.502Z,63.30
2018-12-04T19:44:47.958Z,63.40
2018-12-04T19:47:15.450Z,63.40
2018-12-04T19:49:43.563Z,63.30
2018-12-04T19:52:11.028Z,63.60
2018-12-04T19:54:38.543Z,63.20
2018-12-04T19:57:06.017Z,63.00
2018-12-04T19:59:34.026Z,63.60
2018-12-04T20:02:02.449Z,64.00
2018-12-04T20:04:29.958Z,64.00
2018-12-04T20:06:57.408Z,63.40
2018-12-04T20:09:24.877Z,63.50
2018-12-04T20:11:52.348Z,63.70
2018-12-04T20:14:19.958Z,64.60
2018-12-04T20:16:47.418Z,63.50
2018-12-04T20:19:14.901Z,63.60
2018-12-04T20:21:42.368Z,63.50
2018-12-04T20:24:09.846Z,63.70
2018-12-04T20:26:37.324Z,63.50
2018-12-04T20:29:05.404Z,63.40
2018-12-04T20:31:32.858Z,63.90
2018-12-04T20:34:00.326Z,63.60
2018-12-04T20:36:27.855Z,63.60
2018-12-04T20:38:55.653Z,64.40
2018-12-04T20:41:23.114Z,63.70
2018-12-04T20:43:50.582Z,63.70
2018-12-04T20:46:18.087Z,64.00
2018-12-04T20:48:45.553Z,64.30
2018-12-04T20:51:13.080Z,64.30
2018-12-04T20:53:40.574Z,63.80
2018-12-04T20:56:08.026Z,63.80
2018-12-04T20:58:35.506Z,63.90
2018-12-04T21:01:03.017Z,64.10
2018-12-04T21:03:31.332Z,64.60
2018-12-04T21:05:58.796Z,64.20
2018-12-04T21:08:26.276Z,64.70
2018-12-04T21:10:53.722Z,64.40
2018-12-04T21:13:21.254Z,64.70
2018-12-04T21:15:48.707Z,64.60
2018-12-04T21:18:16.173Z,64.40
2018-12-04T21:20:49.480Z,64.40
2018-12-04T21:23:16.937Z,64.40
2018-12-04T21:25:44.455Z,64.80
2018-12-04T21:28:17.638Z,64.40
2018-12-04T21:30:51.023Z,64.80
2018-12-04T21:33:24.091Z,65.70
2018-12-04T21:35:57.424Z,64.60
2018-12-04T21:38:30.609Z,64.70
2018-12-04T21:41:01.003Z,65.50
2018-12-04T21:43:34.174Z,64.80
2018-12-04T21:46:07.362Z,64.80
2018-12-04T21:48:35.361Z,65.40
2018-12-04T21:51:03.382Z,64.90
2018-12-04T21:53:31.068Z,65.10
2018-12-04T21:55:58.567Z,65.20
2018-12-04T21:58:26.025Z,65.20
2018-12-04T22:00:53.549Z,66.10
2018-12-04T22:03:21.006Z,65.40
2018-12-04T22:05:48.530Z,65.40
2018-12-04T22:08:15.993Z,65.40
2018-12-04T22:10:43.522Z,65.80
2018-12-04T22:13:11.033Z,65.50
2018-12-04T22:15:38.505Z,65.70
2018-12-04T22:18:05.999Z,65.40
2018-12-04T22:20:33.549Z,65.30
2018-12-04T22:23:01.007Z,65.60
2018-12-04T22:25:28.579Z,65.60
2018-12-04T22:27:56.030Z,65.50
2018-12-04T22:30:23.519Z,65.10
2018-12-04T22:32:50.969Z,65.50
2018-12-04T22:35:18.434Z,65.20
2018-12-04T22:37:45.891Z,65.20
2018-12-04T22:40:13.435Z,65.60
2018-12-04T22:42:40.912Z,65.80
2018-12-04T22:45:15.505Z,65.40
2018-12-04T22:47:43.274Z,65.00
2018-12-04T22:50:10.879Z,65.10
2018-12-04T22:52:38.351Z,64.90
2018-12-04T22:55:05.841Z,65.10
2018-12-04T22:57:33.343Z,65.00
2018-12-04T23:00:00.801Z,65.00
2018-12-04T23:02:28.333Z,64.90
2018-12-04T23:04:55.783Z,64.90
2018-12-04T23:07:23.255Z,65.40
2018-12-04T23:09:50.791Z,65.30
2018-12-04T23:12:18.303Z,65.30
2018-12-04T23:14:45.819Z,65.10
2018-12-04T23:17:13.326Z,65.10
2018-12-04T23:19:40.869Z,65.10
2018-12-04T23:22:08.371Z,65.10
2018-12-04T23:24:35.887Z,64.90
2018-12-04T23:27:03.379Z,64.70
2018-12-04T23:29:30.831Z,64.60
2018-12-04T23:31:58.351Z,64.50
2018-12-04T23:34:25.825Z,65.00
2018-12-04T23:36:53.314Z,64.60
2018-12-04T23:39:28.025Z,64.60
2018-12-04T23:41:55.554Z,64.40
2018-12-04T23:44:24.402Z,64.60
2018-12-04T23:46:51.885Z,64.90
2018-12-04T23:49:19.339Z,64.50
2018-12-04T23:51:46.839Z,64.60
2018-12-04T23:54:14.304Z,65.00
2018-12-04T23:56:41.811Z,65.30
2018-12-04T23:59:09.350Z,65.80
